This is the latest recevied weather packets stored in our database for station/object DL2AMT-9. If no packets are shown the sender has not sent any weather packets the latest 1 day(s).
| Time | Temp. | Humidity | Pressure | Rain* | Wind** | Luminosity | Snow |
|---|---|---|---|---|---|---|---|
| 1778002389 | 30° C | 37% | 960.7 hPa | - | - | - | - |
| 1778002092 | 30° C | 37% | 960.8 hPa | - | - | - | - |
| 1778001789 | 30° C | 35% | 960.7 hPa | - | - | - | - |
| 1778001489 | 30° C | 35% | 960.7 hPa | - | - | - | - |
| 1778001189 | 29.44° C | 35% | 960.6 hPa | - | - | - | - |
| 1778000889 | 29.44° C | 34% | 960.6 hPa | - | - | - | - |
| 1778000589 | 29.44° C | 34% | 960.6 hPa | - | - | - | - |
| 1778000289 | 29.44° C | 34% | 960.7 hPa | - | - | - | - |
| 1777999989 | 29.44° C | 34% | 960.7 hPa | - | - | - | - |
| 1777999689 | 29.44° C | 34% | 960.7 hPa | - | - | - | - |
| 1777999389 | 30° C | 35% | 960.8 hPa | - | - | - | - |
| 1777999089 | 30° C | 34% | 960.8 hPa | - | - | - | - |
| 1777998789 | 30° C | 35% | 961 hPa | - | - | - | - |
| 1777998489 | 30° C | 33% | 960.9 hPa | - | - | - | - |
| 1777998188 | 30° C | 33% | 961 hPa | - | - | - | - |
| 1777997888 | 30° C | 32% | 961.1 hPa | - | - | - | - |
| 1777997588 | 30.56° C | 32% | 961.1 hPa | - | - | - | - |
| 1777997288 | 31.11° C | 31% | 961.2 hPa | - | - | - | - |
| 1777996988 | 32.22° C | 30% | 961.2 hPa | - | - | - | - |
| 1777996688 | 33.33° C | 30% | 961.2 hPa | - | - | - | - |
| 1777996388 | 36.11° C | 27% | 961.3 hPa | - | - | - | - |
| 1777996088 | 37.22° C | 29% | 962.5 hPa | - | - | - | - |
| 1777991529 | 35.56° C | 31% | 969.2 hPa | - | - | - | - |
| 1777988930 | 35° C | 29% | 962 hPa | - | - | - | - |
| 1777986211 | 32.22° C | 34% | 962.5 hPa | - | - | - | - |
* Rain since midnight (hover to see other rain measurements)
** Current wind speed in m/s (hover to see current wind gust speed)